sensor_id;sensor_type;location;lat;lon;timestamp;P1;durP1;ratioP1;P2;durP2;ratioP2
34405;SDS011;20658;45.630;8.886;2023-08-21T00:00:41;23.92;;;16.10;;
34405;SDS011;20658;45.630;8.886;2023-08-21T00:03:14;21.40;;;16.60;;
34405;SDS011;20658;45.630;8.886;2023-08-21T00:05:48;22.45;;;15.82;;
34405;SDS011;20658;45.630;8.886;2023-08-21T00:08:23;24.10;;;15.77;;
34405;SDS011;20658;45.630;8.886;2023-08-21T00:10:56;18.98;;;15.52;;
34405;SDS011;20658;45.630;8.886;2023-08-21T00:13:30;20.30;;;15.63;;
34405;SDS011;20658;45.630;8.886;2023-08-21T00:16:03;21.35;;;15.57;;
34405;SDS011;20658;45.630;8.886;2023-08-21T00:18:37;20.10;;;15.15;;
34405;SDS011;20658;45.630;8.886;2023-08-21T00:21:10;21.25;;;15.82;;
34405;SDS011;20658;45.630;8.886;2023-08-21T00:23:45;24.98;;;17.10;;
34405;SDS011;20658;45.630;8.886;2023-08-21T00:26:22;20.25;;;15.45;;
34405;SDS011;20658;45.630;8.886;2023-08-21T00:28:55;22.38;;;15.75;;
34405;SDS011;20658;45.630;8.886;2023-08-21T00:31:29;19.55;;;15.18;;
34405;SDS011;20658;45.630;8.886;2023-08-21T00:34:03;20.58;;;16.00;;
34405;SDS011;20658;45.630;8.886;2023-08-21T00:36:36;23.50;;;15.70;;
34405;SDS011;20658;45.630;8.886;2023-08-21T00:39:11;21.02;;;15.82;;
34405;SDS011;20658;45.630;8.886;2023-08-21T00:41:46;21.80;;;16.70;;
34405;SDS011;20658;45.630;8.886;2023-08-21T00:44:19;20.98;;;15.55;;
34405;SDS011;20658;45.630;8.886;2023-08-21T00:46:53;18.58;;;14.50;;
34405;SDS011;20658;45.630;8.886;2023-08-21T00:49:26;21.60;;;15.32;;
34405;SDS011;20658;45.630;8.886;2023-08-21T00:52:01;21.38;;;15.68;;
34405;SDS011;20658;45.630;8.886;2023-08-21T00:54:37;20.40;;;15.48;;
34405;SDS011;20658;45.630;8.886;2023-08-21T00:57:11;20.67;;;15.05;;
34405;SDS011;20658;45.630;8.886;2023-08-21T00:59:46;21.08;;;15.90;;
34405;SDS011;20658;45.630;8.886;2023-08-21T01:02:20;22.25;;;15.93;;
34405;SDS011;20658;45.630;8.886;2023-08-21T01:04:53;22.67;;;16.42;;
34405;SDS011;20658;45.630;8.886;2023-08-21T01:07:27;20.73;;;15.70;;
34405;SDS011;20658;45.630;8.886;2023-08-21T01:10:03;25.40;;;17.55;;
34405;SDS011;20658;45.630;8.886;2023-08-21T01:12:44;21.92;;;15.50;;
34405;SDS011;20658;45.630;8.886;2023-08-21T01:15:23;22.48;;;16.95;;
34405;SDS011;20658;45.630;8.886;2023-08-21T01:17:59;19.63;;;15.88;;
34405;SDS011;20658;45.630;8.886;2023-08-21T01:20:33;21.38;;;17.80;;
34405;SDS011;20658;45.630;8.886;2023-08-21T01:23:08;26.02;;;18.38;;
34405;SDS011;20658;45.630;8.886;2023-08-21T01:25:43;24.55;;;17.40;;
34405;SDS011;20658;45.630;8.886;2023-08-21T01:28:16;23.58;;;18.40;;
34405;SDS011;20658;45.630;8.886;2023-08-21T01:30:51;23.58;;;18.23;;
34405;SDS011;20658;45.630;8.886;2023-08-21T01:33:30;21.17;;;18.00;;
34405;SDS011;20658;45.630;8.886;2023-08-21T01:36:07;23.98;;;18.73;;
34405;SDS011;20658;45.630;8.886;2023-08-21T01:38:41;21.17;;;17.08;;
34405;SDS011;20658;45.630;8.886;2023-08-21T01:41:17;20.35;;;17.05;;
34405;SDS011;20658;45.630;8.886;2023-08-21T01:43:50;22.00;;;17.90;;
34405;SDS011;20658;45.630;8.886;2023-08-21T01:46:24;24.00;;;17.58;;
34405;SDS011;20658;45.630;8.886;2023-08-21T01:48:57;24.33;;;17.55;;
34405;SDS011;20658;45.630;8.886;2023-08-21T01:51:31;24.65;;;18.65;;
34405;SDS011;20658;45.630;8.886;2023-08-21T01:54:04;23.20;;;17.52;;
34405;SDS011;20658;45.630;8.886;2023-08-21T01:56:39;24.15;;;17.10;;
34405;SDS011;20658;45.630;8.886;2023-08-21T01:59:13;23.55;;;17.40;;
34405;SDS011;20658;45.630;8.886;2023-08-21T02:01:49;22.42;;;17.50;;
34405;SDS011;20658;45.630;8.886;2023-08-21T02:04:24;23.40;;;17.48;;
34405;SDS011;20658;45.630;8.886;2023-08-21T02:06:58;21.98;;;16.90;;
34405;SDS011;20658;45.630;8.886;2023-08-21T02:09:32;21.17;;;17.70;;
34405;SDS011;20658;45.630;8.886;2023-08-21T02:12:07;21.38;;;17.95;;
34405;SDS011;20658;45.630;8.886;2023-08-21T02:14:40;21.85;;;17.00;;
34405;SDS011;20658;45.630;8.886;2023-08-21T02:17:14;21.02;;;16.60;;
34405;SDS011;20658;45.630;8.886;2023-08-21T02:19:47;22.92;;;17.70;;
34405;SDS011;20658;45.630;8.886;2023-08-21T02:22:21;24.75;;;17.02;;
34405;SDS011;20658;45.630;8.886;2023-08-21T02:24:54;20.88;;;16.88;;
34405;SDS011;20658;45.630;8.886;2023-08-21T02:27:29;20.20;;;15.80;;
34405;SDS011;20658;45.630;8.886;2023-08-21T02:30:04;23.15;;;15.95;;
34405;SDS011;20658;45.630;8.886;2023-08-21T02:32:39;23.60;;;15.88;;
34405;SDS011;20658;45.630;8.886;2023-08-21T02:35:12;23.75;;;16.75;;
34405;SDS011;20658;45.630;8.886;2023-08-21T02:37:46;18.10;;;15.45;;
34405;SDS011;20658;45.630;8.886;2023-08-21T02:40:19;22.77;;;17.70;;
34405;SDS011;20658;45.630;8.886;2023-08-21T02:42:54;23.50;;;16.67;;
34405;SDS011;20658;45.630;8.886;2023-08-21T02:45:27;21.65;;;16.52;;
34405;SDS011;20658;45.630;8.886;2023-08-21T02:48:01;22.10;;;16.13;;
34405;SDS011;20658;45.630;8.886;2023-08-21T02:50:35;23.30;;;16.38;;
34405;SDS011;20658;45.630;8.886;2023-08-21T02:53:08;22.23;;;16.95;;
34405;SDS011;20658;45.630;8.886;2023-08-21T02:55:42;24.00;;;17.45;;
34405;SDS011;20658;45.630;8.886;2023-08-21T02:58:13;25.17;;;17.05;;
34405;SDS011;20658;45.630;8.886;2023-08-21T03:00:46;19.58;;;16.10;;
34405;SDS011;20658;45.630;8.886;2023-08-21T03:03:20;21.75;;;16.95;;
34405;SDS011;20658;45.630;8.886;2023-08-21T03:05:53;20.33;;;17.15;;
34405;SDS011;20658;45.630;8.886;2023-08-21T03:08:27;21.70;;;17.38;;
34405;SDS011;20658;45.630;8.886;2023-08-21T03:11:00;20.38;;;16.25;;
34405;SDS011;20658;45.630;8.886;2023-08-21T03:13:35;22.02;;;16.50;;
34405;SDS011;20658;45.630;8.886;2023-08-21T03:16:09;19.25;;;15.57;;
34405;SDS011;20658;45.630;8.886;2023-08-21T03:18:55;22.20;;;16.38;;
34405;SDS011;20658;45.630;8.886;2023-08-21T03:21:31;21.17;;;16.35;;
34405;SDS011;20658;45.630;8.886;2023-08-21T03:24:00;21.13;;;16.58;;
34405;SDS011;20658;45.630;8.886;2023-08-21T03:26:34;23.10;;;16.17;;
34405;SDS011;20658;45.630;8.886;2023-08-21T03:29:09;22.92;;;17.20;;
34405;SDS011;20658;45.630;8.886;2023-08-21T03:31:42;22.27;;;16.83;;
34405;SDS011;20658;45.630;8.886;2023-08-21T03:34:16;23.40;;;17.25;;
34405;SDS011;20658;45.630;8.886;2023-08-21T03:36:53;21.30;;;16.42;;
34405;SDS011;20658;45.630;8.886;2023-08-21T03:39:21;20.52;;;17.52;;
34405;SDS011;20658;45.630;8.886;2023-08-21T03:41:55;22.33;;;17.17;;
34405;SDS011;20658;45.630;8.886;2023-08-21T03:44:30;22.70;;;15.30;;
34405;SDS011;20658;45.630;8.886;2023-08-21T03:47:03;23.90;;;16.98;;
34405;SDS011;20658;45.630;8.886;2023-08-21T03:49:49;22.35;;;15.48;;
34405;SDS011;20658;45.630;8.886;2023-08-21T03:52:24;20.25;;;16.60;;
34405;SDS011;20658;45.630;8.886;2023-08-21T03:54:57;19.23;;;16.83;;
34405;SDS011;20658;45.630;8.886;2023-08-21T03:57:31;22.90;;;17.20;;
34405;SDS011;20658;45.630;8.886;2023-08-21T04:00:07;20.33;;;16.45;;
34405;SDS011;20658;45.630;8.886;2023-08-21T04:02:41;24.85;;;16.50;;
34405;SDS011;20658;45.630;8.886;2023-08-21T04:05:15;24.90;;;16.75;;
34405;SDS011;20658;45.630;8.886;2023-08-21T04:07:48;22.42;;;17.35;;
34405;SDS011;20658;45.630;8.886;2023-08-21T04:10:22;23.98;;;16.50;;
34405;SDS011;20658;45.630;8.886;2023-08-21T04:12:55;20.75;;;18.17;;
34405;SDS011;20658;45.630;8.886;2023-08-21T04:15:30;22.08;;;16.52;;
34405;SDS011;20658;45.630;8.886;2023-08-21T04:18:06;26.58;;;17.40;;
34405;SDS011;20658;45.630;8.886;2023-08-21T04:20:39;20.02;;;17.23;;
34405;SDS011;20658;45.630;8.886;2023-08-21T04:23:13;22.63;;;18.10;;
34405;SDS011;20658;45.630;8.886;2023-08-21T04:25:46;23.80;;;17.77;;
34405;SDS011;20658;45.630;8.886;2023-08-21T04:28:20;25.02;;;17.40;;
34405;SDS011;20658;45.630;8.886;2023-08-21T04:30:56;21.73;;;17.48;;
34405;SDS011;20658;45.630;8.886;2023-08-21T04:33:30;23.42;;;17.42;;
34405;SDS011;20658;45.630;8.886;2023-08-21T04:36:05;23.33;;;18.02;;
34405;SDS011;20658;45.630;8.886;2023-08-21T04:38:38;21.85;;;16.80;;
34405;SDS011;20658;45.630;8.886;2023-08-21T04:41:12;23.77;;;16.95;;
34405;SDS011;20658;45.630;8.886;2023-08-21T04:43:46;21.27;;;16.13;;
34405;SDS011;20658;45.630;8.886;2023-08-21T04:46:21;21.73;;;16.88;;
34405;SDS011;20658;45.630;8.886;2023-08-21T04:48:54;22.33;;;16.17;;
34405;SDS011;20658;45.630;8.886;2023-08-21T04:51:28;21.58;;;16.92;;
34405;SDS011;20658;45.630;8.886;2023-08-21T04:54:04;22.00;;;15.85;;
34405;SDS011;20658;45.630;8.886;2023-08-21T04:56:38;22.30;;;16.50;;
34405;SDS011;20658;45.630;8.886;2023-08-21T04:59:12;21.42;;;17.42;;
34405;SDS011;20658;45.630;8.886;2023-08-21T05:01:47;22.55;;;17.35;;
34405;SDS011;20658;45.630;8.886;2023-08-21T05:04:21;23.83;;;17.02;;
34405;SDS011;20658;45.630;8.886;2023-08-21T05:06:54;23.15;;;17.55;;
34405;SDS011;20658;45.630;8.886;2023-08-21T05:09:28;23.35;;;16.80;;
34405;SDS011;20658;45.630;8.886;2023-08-21T05:12:02;19.30;;;16.13;;
34405;SDS011;20658;45.630;8.886;2023-08-21T05:14:38;19.90;;;15.95;;
34405;SDS011;20658;45.630;8.886;2023-08-21T05:17:13;20.58;;;16.17;;
34405;SDS011;20658;45.630;8.886;2023-08-21T05:19:47;25.08;;;15.35;;
34405;SDS011;20658;45.630;8.886;2023-08-21T05:22:16;20.52;;;14.88;;
34405;SDS011;20658;45.630;8.886;2023-08-21T05:24:49;20.55;;;15.50;;
34405;SDS011;20658;45.630;8.886;2023-08-21T05:27:23;19.05;;;15.23;;
34405;SDS011;20658;45.630;8.886;2023-08-21T05:29:57;21.02;;;15.50;;
34405;SDS011;20658;45.630;8.886;2023-08-21T05:32:33;20.35;;;16.50;;
34405;SDS011;20658;45.630;8.886;2023-08-21T05:35:06;20.67;;;16.05;;
34405;SDS011;20658;45.630;8.886;2023-08-21T05:37:41;21.02;;;17.38;;
34405;SDS011;20658;45.630;8.886;2023-08-21T05:40:14;24.00;;;16.38;;
34405;SDS011;20658;45.630;8.886;2023-08-21T05:42:48;21.17;;;15.48;;
34405;SDS011;20658;45.630;8.886;2023-08-21T05:45:22;17.95;;;14.27;;
34405;SDS011;20658;45.630;8.886;2023-08-21T05:47:57;18.10;;;14.73;;
34405;SDS011;20658;45.630;8.886;2023-08-21T05:50:31;21.27;;;15.45;;
34405;SDS011;20658;45.630;8.886;2023-08-21T05:53:04;20.00;;;15.35;;
34405;SDS011;20658;45.630;8.886;2023-08-21T05:55:39;27.30;;;15.23;;
34405;SDS011;20658;45.630;8.886;2023-08-21T05:58:13;21.30;;;15.27;;
34405;SDS011;20658;45.630;8.886;2023-08-21T06:00:47;19.25;;;15.45;;
34405;SDS011;20658;45.630;8.886;2023-08-21T06:03:22;25.73;;;15.18;;
34405;SDS011;20658;45.630;8.886;2023-08-21T06:06:15;19.65;;;14.15;;
34405;SDS011;20658;45.630;8.886;2023-08-21T06:08:48;21.40;;;15.07;;
34405;SDS011;20658;45.630;8.886;2023-08-21T06:11:22;19.35;;;13.65;;
34405;SDS011;20658;45.630;8.886;2023-08-21T06:13:55;19.95;;;14.00;;
34405;SDS011;20658;45.630;8.886;2023-08-21T06:16:29;24.42;;;12.70;;
34405;SDS011;20658;45.630;8.886;2023-08-21T06:19:04;20.75;;;14.55;;
34405;SDS011;20658;45.630;8.886;2023-08-21T06:21:37;20.17;;;13.43;;
34405;SDS011;20658;45.630;8.886;2023-08-21T06:24:11;20.45;;;15.15;;
34405;SDS011;20658;45.630;8.886;2023-08-21T06:26:44;21.52;;;14.45;;
34405;SDS011;20658;45.630;8.886;2023-08-21T06:29:18;21.02;;;14.82;;
34405;SDS011;20658;45.630;8.886;2023-08-21T06:31:52;19.80;;;13.48;;
34405;SDS011;20658;45.630;8.886;2023-08-21T06:34:26;18.55;;;12.82;;
34405;SDS011;20658;45.630;8.886;2023-08-21T06:37:00;18.92;;;12.18;;
34405;SDS011;20658;45.630;8.886;2023-08-21T06:39:34;17.60;;;12.90;;
34405;SDS011;20658;45.630;8.886;2023-08-21T06:42:08;23.10;;;16.58;;
34405;SDS011;20658;45.630;8.886;2023-08-21T06:44:46;20.10;;;13.52;;
34405;SDS011;20658;45.630;8.886;2023-08-21T06:47:20;17.02;;;12.93;;
34405;SDS011;20658;45.630;8.886;2023-08-21T06:49:55;18.60;;;13.35;;
34405;SDS011;20658;45.630;8.886;2023-08-21T06:52:28;16.90;;;12.38;;
34405;SDS011;20658;45.630;8.886;2023-08-21T06:55:01;16.52;;;12.18;;
34405;SDS011;20658;45.630;8.886;2023-08-21T06:57:35;20.27;;;12.70;;
34405;SDS011;20658;45.630;8.886;2023-08-21T07:00:09;19.08;;;12.68;;
34405;SDS011;20658;45.630;8.886;2023-08-21T07:02:44;17.00;;;12.45;;
34405;SDS011;20658;45.630;8.886;2023-08-21T07:05:18;16.48;;;13.15;;
34405;SDS011;20658;45.630;8.886;2023-08-21T07:07:52;20.20;;;12.13;;
34405;SDS011;20658;45.630;8.886;2023-08-21T07:10:26;19.98;;;12.43;;
34405;SDS011;20658;45.630;8.886;2023-08-21T07:13:00;20.83;;;13.05;;
34405;SDS011;20658;45.630;8.886;2023-08-21T07:15:34;18.27;;;12.95;;
34405;SDS011;20658;45.630;8.886;2023-08-21T07:18:07;15.40;;;12.25;;
34405;SDS011;20658;45.630;8.886;2023-08-21T07:20:42;20.58;;;12.32;;
34405;SDS011;20658;45.630;8.886;2023-08-21T07:23:15;15.65;;;11.77;;
34405;SDS011;20658;45.630;8.886;2023-08-21T07:25:49;15.95;;;12.77;;
34405;SDS011;20658;45.630;8.886;2023-08-21T07:28:22;15.27;;;12.18;;
34405;SDS011;20658;45.630;8.886;2023-08-21T07:30:56;15.73;;;11.57;;
34405;SDS011;20658;45.630;8.886;2023-08-21T07:33:30;19.35;;;11.20;;
34405;SDS011;20658;45.630;8.886;2023-08-21T07:36:05;18.13;;;11.82;;
34405;SDS011;20658;45.630;8.886;2023-08-21T07:38:38;19.95;;;11.85;;
34405;SDS011;20658;45.630;8.886;2023-08-21T07:41:12;17.98;;;12.20;;
34405;SDS011;20658;45.630;8.886;2023-08-21T07:43:46;19.05;;;11.50;;
34405;SDS011;20658;45.630;8.886;2023-08-21T07:46:19;17.10;;;11.23;;
34405;SDS011;20658;45.630;8.886;2023-08-21T07:48:52;20.15;;;11.45;;
34405;SDS011;20658;45.630;8.886;2023-08-21T07:51:28;18.08;;;10.80;;
34405;SDS011;20658;45.630;8.886;2023-08-21T07:54:01;14.90;;;10.38;;
34405;SDS011;20658;45.630;8.886;2023-08-21T07:56:35;13.13;;;9.90;;
34405;SDS011;20658;45.630;8.886;2023-08-21T07:59:11;16.48;;;10.35;;
34405;SDS011;20658;45.630;8.886;2023-08-21T08:01:44;13.82;;;9.63;;
34405;SDS011;20658;45.630;8.886;2023-08-21T08:04:18;16.45;;;9.10;;
34405;SDS011;20658;45.630;8.886;2023-08-21T08:06:53;17.80;;;9.30;;
34405;SDS011;20658;45.630;8.886;2023-08-21T08:09:26;10.77;;;8.55;;
34405;SDS011;20658;45.630;8.886;2023-08-21T08:12:00;11.52;;;8.63;;
34405;SDS011;20658;45.630;8.886;2023-08-21T08:14:34;13.43;;;8.48;;
34405;SDS011;20658;45.630;8.886;2023-08-21T08:17:08;12.27;;;8.48;;
34405;SDS011;20658;45.630;8.886;2023-08-21T08:19:41;15.18;;;8.57;;
34405;SDS011;20658;45.630;8.886;2023-08-21T08:22:16;11.07;;;7.63;;
34405;SDS011;20658;45.630;8.886;2023-08-21T08:24:49;12.18;;;7.82;;
34405;SDS011;20658;45.630;8.886;2023-08-21T08:27:23;12.57;;;7.85;;
34405;SDS011;20658;45.630;8.886;2023-08-21T08:29:57;14.75;;;8.10;;
34405;SDS011;20658;45.630;8.886;2023-08-21T08:32:30;17.27;;;8.95;;
34405;SDS011;20658;45.630;8.886;2023-08-21T08:35:04;13.88;;;9.15;;
34405;SDS011;20658;45.630;8.886;2023-08-21T08:37:40;17.48;;;9.75;;
34405;SDS011;20658;45.630;8.886;2023-08-21T08:40:14;12.07;;;9.90;;
34405;SDS011;20658;45.630;8.886;2023-08-21T08:42:42;15.82;;;8.90;;
34405;SDS011;20658;45.630;8.886;2023-08-21T08:45:16;16.67;;;9.27;;
34405;SDS011;20658;45.630;8.886;2023-08-21T08:48:03;12.48;;;8.27;;
34405;SDS011;20658;45.630;8.886;2023-08-21T08:50:38;12.52;;;8.43;;
34405;SDS011;20658;45.630;8.886;2023-08-21T08:53:14;14.70;;;8.13;;
34405;SDS011;20658;45.630;8.886;2023-08-21T08:55:48;12.27;;;7.97;;
34405;SDS011;20658;45.630;8.886;2023-08-21T08:58:22;12.82;;;7.20;;
34405;SDS011;20658;45.630;8.886;2023-08-21T09:00:55;12.70;;;7.43;;
34405;SDS011;20658;45.630;8.886;2023-08-21T09:03:29;14.98;;;7.72;;
34405;SDS011;20658;45.630;8.886;2023-08-21T09:06:02;11.27;;;7.93;;
34405;SDS011;20658;45.630;8.886;2023-08-21T09:08:37;14.00;;;8.00;;
34405;SDS011;20658;45.630;8.886;2023-08-21T09:11:11;12.68;;;8.40;;
34405;SDS011;20658;45.630;8.886;2023-08-21T09:13:44;13.25;;;7.18;;
34405;SDS011;20658;45.630;8.886;2023-08-21T09:16:18;13.85;;;7.53;;
34405;SDS011;20658;45.630;8.886;2023-08-21T09:18:53;12.88;;;8.85;;
34405;SDS011;20658;45.630;8.886;2023-08-21T09:21:28;17.42;;;8.32;;
34405;SDS011;20658;45.630;8.886;2023-08-21T09:24:03;18.35;;;8.60;;
34405;SDS011;20658;45.630;8.886;2023-08-21T09:26:37;10.95;;;8.73;;
34405;SDS011;20658;45.630;8.886;2023-08-21T09:29:11;11.20;;;7.97;;
34405;SDS011;20658;45.630;8.886;2023-08-21T09:31:44;12.98;;;9.02;;
34405;SDS011;20658;45.630;8.886;2023-08-21T09:34:19;14.93;;;9.27;;
34405;SDS011;20658;45.630;8.886;2023-08-21T09:36:54;12.63;;;7.95;;
34405;SDS011;20658;45.630;8.886;2023-08-21T09:39:33;13.85;;;8.10;;
34405;SDS011;20658;45.630;8.886;2023-08-21T09:42:08;16.07;;;9.03;;
34405;SDS011;20658;45.630;8.886;2023-08-21T09:44:41;13.90;;;8.80;;
34405;SDS011;20658;45.630;8.886;2023-08-21T09:47:15;12.60;;;7.95;;
34405;SDS011;20658;45.630;8.886;2023-08-21T09:49:48;14.20;;;8.25;;
34405;SDS011;20658;45.630;8.886;2023-08-21T09:52:22;14.35;;;8.88;;
34405;SDS011;20658;45.630;8.886;2023-08-21T09:54:58;15.27;;;8.75;;
34405;SDS011;20658;45.630;8.886;2023-08-21T09:57:34;13.50;;;8.80;;
34405;SDS011;20658;45.630;8.886;2023-08-21T10:00:09;13.00;;;7.90;;
34405;SDS011;20658;45.630;8.886;2023-08-21T10:02:51;13.88;;;8.65;;
34405;SDS011;20658;45.630;8.886;2023-08-21T10:05:26;13.88;;;8.52;;
34405;SDS011;20658;45.630;8.886;2023-08-21T10:08:01;12.55;;;7.68;;
34405;SDS011;20658;45.630;8.886;2023-08-21T10:10:38;15.18;;;8.23;;
34405;SDS011;20658;45.630;8.886;2023-08-21T10:13:11;12.65;;;7.53;;
34405;SDS011;20658;45.630;8.886;2023-08-21T10:15:45;11.88;;;8.00;;
34405;SDS011;20658;45.630;8.886;2023-08-21T10:18:19;13.60;;;7.38;;
34405;SDS011;20658;45.630;8.886;2023-08-21T10:20:55;15.20;;;8.73;;
34405;SDS011;20658;45.630;8.886;2023-08-21T10:23:45;13.65;;;8.35;;
34405;SDS011;20658;45.630;8.886;2023-08-21T10:26:22;11.25;;;8.27;;
34405;SDS011;20658;45.630;8.886;2023-08-21T10:28:59;11.65;;;7.90;;
34405;SDS011;20658;45.630;8.886;2023-08-21T10:31:37;18.83;;;7.70;;
34405;SDS011;20658;45.630;8.886;2023-08-21T10:34:12;13.30;;;7.85;;
34405;SDS011;20658;45.630;8.886;2023-08-21T10:39:39;16.10;;;8.20;;
34405;SDS011;20658;45.630;8.886;2023-08-21T10:42:40;11.20;;;7.70;;
34405;SDS011;20658;45.630;8.886;2023-08-21T10:45:14;13.68;;;7.82;;
34405;SDS011;20658;45.630;8.886;2023-08-21T10:47:48;9.48;;;6.93;;
34405;SDS011;20658;45.630;8.886;2023-08-21T10:50:22;11.20;;;6.82;;
34405;SDS011;20658;45.630;8.886;2023-08-21T10:52:55;14.02;;;7.18;;
34405;SDS011;20658;45.630;8.886;2023-08-21T10:55:31;12.32;;;7.00;;
34405;SDS011;20658;45.630;8.886;2023-08-21T10:58:05;10.75;;;7.25;;
34405;SDS011;20658;45.630;8.886;2023-08-21T11:00:42;14.18;;;8.52;;
34405;SDS011;20658;45.630;8.886;2023-08-21T11:03:16;14.35;;;7.95;;
34405;SDS011;20658;45.630;8.886;2023-08-21T11:05:59;13.38;;;8.73;;
34405;SDS011;20658;45.630;8.886;2023-08-21T11:08:35;13.65;;;9.15;;
34405;SDS011;20658;45.630;8.886;2023-08-21T11:11:09;13.63;;;7.68;;
34405;SDS011;20658;45.630;8.886;2023-08-21T11:13:53;11.95;;;8.77;;
34405;SDS011;20658;45.630;8.886;2023-08-21T11:16:26;12.27;;;7.72;;
34405;SDS011;20658;45.630;8.886;2023-08-21T11:19:03;13.23;;;8.88;;
34405;SDS011;20658;45.630;8.886;2023-08-21T11:21:37;14.20;;;7.70;;
34405;SDS011;20658;45.630;8.886;2023-08-21T11:24:10;9.70;;;7.38;;
34405;SDS011;20658;45.630;8.886;2023-08-21T11:26:45;11.95;;;7.45;;
34405;SDS011;20658;45.630;8.886;2023-08-21T11:29:20;12.25;;;7.70;;
34405;SDS011;20658;45.630;8.886;2023-08-21T11:31:53;14.27;;;7.25;;
34405;SDS011;20658;45.630;8.886;2023-08-21T11:34:27;14.75;;;7.85;;
34405;SDS011;20658;45.630;8.886;2023-08-21T11:37:01;12.85;;;6.65;;
34405;SDS011;20658;45.630;8.886;2023-08-21T11:39:39;10.73;;;6.13;;
34405;SDS011;20658;45.630;8.886;2023-08-21T11:42:18;10.82;;;6.13;;
34405;SDS011;20658;45.630;8.886;2023-08-21T11:44:55;11.90;;;5.82;;
34405;SDS011;20658;45.630;8.886;2023-08-21T11:47:31;8.20;;;5.32;;
34405;SDS011;20658;45.630;8.886;2023-08-21T11:50:06;13.27;;;6.22;;
34405;SDS011;20658;45.630;8.886;2023-08-21T11:52:43;6.97;;;5.30;;
34405;SDS011;20658;45.630;8.886;2023-08-21T11:55:17;8.10;;;5.47;;
34405;SDS011;20658;45.630;8.886;2023-08-21T11:57:51;7.65;;;5.85;;
34405;SDS011;20658;45.630;8.886;2023-08-21T12:00:28;9.35;;;5.22;;
34405;SDS011;20658;45.630;8.886;2023-08-21T12:03:02;12.05;;;5.18;;
34405;SDS011;20658;45.630;8.886;2023-08-21T12:05:42;10.57;;;6.07;;
34405;SDS011;20658;45.630;8.886;2023-08-21T12:08:16;12.65;;;5.88;;
34405;SDS011;20658;45.630;8.886;2023-08-21T12:10:49;10.43;;;5.63;;
34405;SDS011;20658;45.630;8.886;2023-08-21T12:13:23;8.88;;;4.97;;
34405;SDS011;20658;45.630;8.886;2023-08-21T12:15:58;8.45;;;5.65;;
34405;SDS011;20658;45.630;8.886;2023-08-21T12:18:31;12.60;;;5.60;;
34405;SDS011;20658;45.630;8.886;2023-08-21T12:21:05;8.45;;;4.70;;
34405;SDS011;20658;45.630;8.886;2023-08-21T12:23:39;13.25;;;5.97;;
34405;SDS011;20658;45.630;8.886;2023-08-21T12:26:12;10.68;;;6.60;;
34405;SDS011;20658;45.630;8.886;2023-08-21T12:28:51;11.30;;;6.65;;
34405;SDS011;20658;45.630;8.886;2023-08-21T12:31:26;10.15;;;7.15;;
34405;SDS011;20658;45.630;8.886;2023-08-21T12:34:00;11.77;;;7.82;;
34405;SDS011;20658;45.630;8.886;2023-08-21T12:36:35;12.80;;;7.70;;
34405;SDS011;20658;45.630;8.886;2023-08-21T12:39:09;13.73;;;7.95;;
34405;SDS011;20658;45.630;8.886;2023-08-21T12:41:42;16.52;;;7.95;;
34405;SDS011;20658;45.630;8.886;2023-08-21T12:44:16;14.32;;;7.30;;
34405;SDS011;20658;45.630;8.886;2023-08-21T12:46:50;14.35;;;7.57;;
34405;SDS011;20658;45.630;8.886;2023-08-21T12:49:24;14.50;;;7.70;;
34405;SDS011;20658;45.630;8.886;2023-08-21T12:51:57;15.02;;;7.80;;
34405;SDS011;20658;45.630;8.886;2023-08-21T12:54:31;10.10;;;6.95;;
34405;SDS011;20658;45.630;8.886;2023-08-21T12:57:04;13.43;;;8.32;;
34405;SDS011;20658;45.630;8.886;2023-08-21T12:59:39;15.48;;;8.25;;
34405;SDS011;20658;45.630;8.886;2023-08-21T13:02:13;13.23;;;7.90;;
34405;SDS011;20658;45.630;8.886;2023-08-21T13:04:47;16.42;;;8.60;;
34405;SDS011;20658;45.630;8.886;2023-08-21T13:07:20;14.65;;;7.43;;
34405;SDS011;20658;45.630;8.886;2023-08-21T13:09:54;12.77;;;7.80;;
34405;SDS011;20658;45.630;8.886;2023-08-21T13:12:27;13.20;;;7.70;;
34405;SDS011;20658;45.630;8.886;2023-08-21T13:15:01;11.68;;;7.45;;
34405;SDS011;20658;45.630;8.886;2023-08-21T13:17:36;16.52;;;7.90;;
34405;SDS011;20658;45.630;8.886;2023-08-21T13:20:10;15.50;;;7.60;;
34405;SDS011;20658;45.630;8.886;2023-08-21T13:22:44;13.88;;;7.28;;
34405;SDS011;20658;45.630;8.886;2023-08-21T13:25:20;12.02;;;7.40;;
34405;SDS011;20658;45.630;8.886;2023-08-21T13:27:51;12.27;;;6.80;;
34405;SDS011;20658;45.630;8.886;2023-08-21T13:30:25;10.13;;;7.05;;
34405;SDS011;20658;45.630;8.886;2023-08-21T13:33:00;18.33;;;8.10;;
34405;SDS011;20658;45.630;8.886;2023-08-21T13:35:35;16.13;;;8.10;;
34405;SDS011;20658;45.630;8.886;2023-08-21T13:38:08;13.25;;;7.28;;
34405;SDS011;20658;45.630;8.886;2023-08-21T13:40:42;15.25;;;6.85;;
34405;SDS011;20658;45.630;8.886;2023-08-21T13:43:15;12.35;;;7.10;;
34405;SDS011;20658;45.630;8.886;2023-08-21T13:45:49;8.38;;;6.60;;
34405;SDS011;20658;45.630;8.886;2023-08-21T13:48:24;9.95;;;6.93;;
34405;SDS011;20658;45.630;8.886;2023-08-21T13:50:57;17.23;;;7.43;;
34405;SDS011;20658;45.630;8.886;2023-08-21T13:53:30;12.23;;;7.10;;
34405;SDS011;20658;45.630;8.886;2023-08-21T13:56:04;13.15;;;6.63;;
34405;SDS011;20658;45.630;8.886;2023-08-21T13:58:37;11.90;;;7.70;;
34405;SDS011;20658;45.630;8.886;2023-08-21T14:01:11;13.43;;;7.05;;
34405;SDS011;20658;45.630;8.886;2023-08-21T14:03:45;10.73;;;7.28;;
34405;SDS011;20658;45.630;8.886;2023-08-21T14:06:19;13.20;;;6.70;;
34405;SDS011;20658;45.630;8.886;2023-08-21T14:08:52;9.38;;;6.68;;
34405;SDS011;20658;45.630;8.886;2023-08-21T14:11:26;10.98;;;5.85;;
34405;SDS011;20658;45.630;8.886;2023-08-21T14:13:59;14.32;;;5.80;;
34405;SDS011;20658;45.630;8.886;2023-08-21T14:16:33;13.95;;;6.53;;
34405;SDS011;20658;45.630;8.886;2023-08-21T14:19:07;12.00;;;6.55;;
34405;SDS011;20658;45.630;8.886;2023-08-21T14:21:41;8.52;;;6.50;;
34405;SDS011;20658;45.630;8.886;2023-08-21T14:24:14;10.50;;;6.28;;
34405;SDS011;20658;45.630;8.886;2023-08-21T14:26:48;8.60;;;6.78;;
34405;SDS011;20658;45.630;8.886;2023-08-21T14:29:22;10.00;;;6.47;;
34405;SDS011;20658;45.630;8.886;2023-08-21T14:31:55;8.38;;;6.03;;
34405;SDS011;20658;45.630;8.886;2023-08-21T14:34:32;16.17;;;6.05;;
34405;SDS011;20658;45.630;8.886;2023-08-21T14:37:06;10.05;;;5.70;;
34405;SDS011;20658;45.630;8.886;2023-08-21T14:39:40;7.18;;;5.45;;
34405;SDS011;20658;45.630;8.886;2023-08-21T14:42:14;9.43;;;5.90;;
34405;SDS011;20658;45.630;8.886;2023-08-21T14:44:47;10.95;;;6.10;;
34405;SDS011;20658;45.630;8.886;2023-08-21T14:47:21;10.95;;;5.63;;
34405;SDS011;20658;45.630;8.886;2023-08-21T14:49:55;9.68;;;5.78;;
34405;SDS011;20658;45.630;8.886;2023-08-21T14:52:29;10.23;;;6.50;;
34405;SDS011;20658;45.630;8.886;2023-08-21T14:55:03;12.27;;;5.65;;
34405;SDS011;20658;45.630;8.886;2023-08-21T14:57:37;8.85;;;5.85;;
34405;SDS011;20658;45.630;8.886;2023-08-21T15:00:11;9.13;;;5.65;;
34405;SDS011;20658;45.630;8.886;2023-08-21T15:02:48;7.90;;;5.55;;
34405;SDS011;20658;45.630;8.886;2023-08-21T15:05:22;11.02;;;5.90;;
34405;SDS011;20658;45.630;8.886;2023-08-21T15:07:56;9.40;;;5.80;;
34405;SDS011;20658;45.630;8.886;2023-08-21T15:10:32;9.20;;;5.38;;
34405;SDS011;20658;45.630;8.886;2023-08-21T15:13:06;9.88;;;5.85;;